Coffs Harbour, Australia
Current Conditions -  °F | °C
As of 10:00 AM on Tuesday 23 Dec 2014 (Local Time) from YCFS Reporting Station
Broken Clouds Broken Clouds  
Wind Chill: 77°   Ceiling: 27000
Heat Index: 79°   Visibility: 6mi
Dew Point: 63°   Wind: 13mph
Humidity: 61%   Direction: 360°N
Pressure: 30.03"   Gusts: NA
Location:  30.28°S, 153.13°E
Report Text: YCFS 222300Z 36011KT 9999 FEW035 BKN270 25/17 Q1017
Loading
Personal Weather Stations






























Interactive Weather Map New forecast layout! Learn more

10-Day Weather Forecast

Advertisements
Track Severe Weather on mobile